Time;durP1;ratioP1;P1;durP2;ratioP2;P2;SDS_P1;SDS_P2;PMS_P1;PMS_P2;Temp;Humidity;BMP_temperature;BMP_pressure;BME280_temperature;BME280_humidity;BME280_pressure;Samples;Min_cycle;Max_cycle;Signal;HPM_P1;HPM_P2
2023/04/11 00:00:36;;;;;;;11.00;7.30;;;5.20;99.90;;;;;;5024115;28;20417;-46
2023/04/11 00:03:05;;;;;;;14.13;7.53;;;5.30;99.90;;;;;;5022903;28;20045;-46
2023/04/11 00:05:33;;;;;;;7.32;5.80;;;5.30;99.90;;;;;;5022726;28;20061;-46
2023/04/11 00:08:01;;;;;;;7.13;6.35;;;5.30;99.90;;;;;;5022841;28;20045;-46
2023/04/11 00:10:28;;;;;;;9.13;7.03;;;5.10;99.90;;;;;;5022788;28;20505;-46
2023/04/11 00:12:56;;;;;;;11.10;6.47;;;5.00;99.90;;;;;;5024523;28;20084;-46
2023/04/11 00:15:25;;;;;;;10.50;7.40;;;5.00;99.90;;;;;;5022204;28;20064;-46
2023/04/11 00:17:53;;;;;;;12.90;7.90;;;5.00;99.90;;;;;;5023387;28;20053;-46
2023/04/11 00:20:21;;;;;;;8.13;7.13;;;4.90;99.90;;;;;;5022975;28;20530;-46
2023/04/11 00:22:52;;;;;;;8.77;7.00;;;5.00;99.90;;;;;;5023389;28;20053;-46
2023/04/11 00:25:20;;;;;;;9.57;7.13;;;5.00;99.90;;;;;;5023923;28;20064;-46
2023/04/11 00:27:47;;;;;;;11.20;8.15;;;5.00;99.90;;;;;;5022988;28;20049;-46
2023/04/11 00:30:15;;;;;;;10.02;8.30;;;5.00;99.90;;;;;;5021032;28;20053;-46
2023/04/11 00:32:45;;;;;;;10.52;8.93;;;4.90;99.90;;;;;;5023783;28;20065;-46
2023/04/11 00:35:13;;;;;;;10.27;7.13;;;4.90;99.90;;;;;;5022393;28;20049;-47
2023/04/11 00:37:43;;;;;;;10.77;7.32;;;4.90;99.90;;;;;;5024160;28;20417;-46
2023/04/11 00:40:14;;;;;;;10.15;7.60;;;4.90;99.90;;;;;;5015627;28;20473;-46
2023/04/11 00:42:42;;;;;;;13.25;9.63;;;4.90;99.90;;;;;;5022301;28;20049;-45
2023/04/11 00:45:10;;;;;;;9.93;8.10;;;5.00;99.90;;;;;;5023338;28;20053;-45
2023/04/11 00:47:38;;;;;;;10.38;8.13;;;5.10;99.90;;;;;;5023172;28;20041;-46
2023/04/11 00:50:07;;;;;;;11.43;7.57;;;5.30;99.90;;;;;;5021509;28;20057;-46
2023/04/11 00:52:37;;;;;;;12.05;9.38;;;5.30;99.90;;;;;;5023334;28;20405;-46
2023/04/11 00:55:06;;;;;;;10.30;7.47;;;5.50;99.90;;;;;;5023107;28;20473;-46
2023/04/11 00:57:34;;;;;;;10.85;7.32;;;5.50;99.90;;;;;;5023946;28;20071;-46
2023/04/11 01:00:02;;;;;;;7.78;6.97;;;5.50;99.90;;;;;;5021318;28;20057;-45
2023/04/11 01:02:30;;;;;;;9.35;6.07;;;5.40;99.90;;;;;;5022709;28;20521;-46
2023/04/11 01:04:59;;;;;;;9.57;7.15;;;5.20;99.90;;;;;;5022161;28;20050;-46
2023/04/11 01:07:30;;;;;;;8.77;5.97;;;5.10;99.90;;;;;;5005593;28;20053;-47
2023/04/11 01:10:00;;;;;;;10.63;6.88;;;5.10;99.90;;;;;;5023496;28;20596;-46
2023/04/11 01:12:29;;;;;;;11.82;7.60;;;5.10;99.90;;;;;;5022387;28;20049;-46
2023/04/11 01:14:57;;;;;;;8.07;7.25;;;5.20;99.90;;;;;;5022366;28;20049;-46
2023/04/11 01:17:25;;;;;;;6.80;5.90;;;5.50;99.90;;;;;;5022796;28;20053;-48
2023/04/11 01:19:52;;;;;;;12.80;5.38;;;5.90;99.90;;;;;;5022030;28;20053;-45
2023/04/11 01:22:21;;;;;;;10.95;7.00;;;6.20;99.90;;;;;;5022730;28;20037;-46
2023/04/11 01:24:49;;;;;;;6.97;5.45;;;6.30;99.90;;;;;;5017504;28;20578;-45
2023/04/11 01:27:17;;;;;;;8.23;6.30;;;6.30;99.90;;;;;;5021266;28;20410;-47
2023/04/11 01:29:45;;;;;;;9.55;6.03;;;6.30;99.90;;;;;;5022901;28;20771;-46
2023/04/11 01:32:13;;;;;;;10.48;7.00;;;6.00;99.90;;;;;;5005171;28;20046;-46
2023/04/11 01:34:41;;;;;;;9.18;6.88;;;5.90;99.90;;;;;;5021276;28;20506;-46
2023/04/11 01:37:08;;;;;;;10.13;7.28;;;5.90;99.90;;;;;;5022216;28;20053;-46
2023/04/11 01:39:36;;;;;;;10.90;6.93;;;6.00;99.90;;;;;;5023118;28;20046;-45
2023/04/11 01:42:05;;;;;;;9.43;7.97;;;5.90;99.90;;;;;;5025471;28;20053;-46
2023/04/11 01:44:33;;;;;;;7.28;5.93;;;6.00;99.90;;;;;;5024832;28;20053;-46
2023/04/11 01:47:03;;;;;;;8.25;7.28;;;6.00;99.90;;;;;;5026314;28;20056;-45
2023/04/11 01:49:31;;;;;;;6.93;6.22;;;5.90;99.90;;;;;;5027148;28;20434;-45
2023/04/11 01:51:58;;;;;;;9.48;7.72;;;5.90;99.90;;;;;;5003211;28;20062;-45
2023/04/11 01:54:26;;;;;;;8.48;5.47;;;5.80;99.90;;;;;;5017579;28;20049;-45
2023/04/11 01:56:53;;;;;;;6.32;5.72;;;5.80;99.90;;;;;;5035226;28;20458;-45
2023/04/11 01:59:21;;;;;;;8.30;6.53;;;5.80;99.90;;;;;;5025765;28;20528;-46
2023/04/11 02:01:49;;;;;;;9.23;6.90;;;5.80;99.90;;;;;;5016088;28;20565;-46
2023/04/11 02:04:16;;;;;;;7.18;6.15;;;5.70;99.90;;;;;;5036449;28;20387;-45
2023/04/11 02:06:44;;;;;;;10.07;7.72;;;5.70;99.90;;;;;;5035954;28;20553;-45
2023/04/11 02:09:12;;;;;;;10.52;8.27;;;5.60;99.90;;;;;;5030017;28;20088;-46
2023/04/11 02:11:40;;;;;;;13.13;8.43;;;5.50;99.90;;;;;;5015126;28;20425;-46
2023/04/11 02:14:08;;;;;;;14.60;7.65;;;5.40;99.90;;;;;;5032649;28;20060;-46
2023/04/11 02:16:56;;;;;;;8.80;6.65;;;5.40;99.90;;;;;;5036548;28;20049;-46
2023/04/11 02:19:24;;;;;;;10.27;7.43;;;5.50;99.90;;;;;;5001820;28;20060;-45
2023/04/11 02:21:52;;;;;;;12.77;7.45;;;5.60;99.90;;;;;;5028140;28;20057;-45
2023/04/11 02:24:20;;;;;;;10.40;7.72;;;5.60;99.90;;;;;;5024924;28;20057;-45
2023/04/11 02:26:48;;;;;;;6.13;5.28;;;5.80;99.90;;;;;;5025976;28;20045;-45
2023/04/11 02:29:17;;;;;;;4.97;3.55;;;6.10;99.90;;;;;;5026342;28;20057;-45
2023/04/11 02:31:47;;;;;;;4.15;3.83;;;6.50;99.90;;;;;;5025762;28;20049;-45
2023/04/11 02:34:17;;;;;;;2.88;2.63;;;7.20;99.90;;;;;;5013940;28;20466;-44
2023/04/11 02:36:44;;;;;;;2.75;2.10;;;7.70;99.90;;;;;;5032668;28;20064;-45
2023/04/11 02:39:12;;;;;;;3.03;2.65;;;8.20;99.90;;;;;;5031591;28;20053;-45
2023/04/11 02:41:41;;;;;;;2.97;2.50;;;8.40;99.90;;;;;;5026171;28;20538;-44
2023/04/11 02:44:10;;;;;;;6.97;2.72;;;8.50;99.90;;;;;;5035686;28;20472;-46
2023/04/11 02:46:39;;;;;;;4.20;2.85;;;8.60;99.90;;;;;;5028061;28;20057;-45
2023/04/11 02:49:08;;;;;;;9.02;3.65;;;8.60;99.90;;;;;;5013656;28;20049;-45
2023/04/11 02:51:35;;;;;;;4.65;3.20;;;8.50;99.90;;;;;;5007749;28;20644;-45
2023/04/11 02:54:04;;;;;;;4.32;3.92;;;8.30;99.90;;;;;;5007159;28;20426;-46
2023/04/11 02:56:37;;;;;;;4.15;3.63;;;8.20;99.90;;;;;;5007775;28;20045;-45
2023/04/11 02:59:05;;;;;;;3.97;3.50;;;8.00;99.90;;;;;;5022207;28;20046;-45
2023/04/11 03:01:33;;;;;;;4.85;3.63;;;7.80;99.90;;;;;;5006953;28;20422;-45
2023/04/11 03:04:01;;;;;;;8.88;5.97;;;7.70;99.90;;;;;;5026282;28;20045;-46
2023/04/11 03:06:40;;;;;;;6.82;5.35;;;7.40;99.90;;;;;;5026573;28;20045;-45
2023/04/11 03:09:07;;;;;;;7.47;6.32;;;7.20;99.90;;;;;;5021524;28;20453;-45
2023/04/11 03:11:35;;;;;;;6.47;5.05;;;7.00;99.90;;;;;;5025008;28;20057;-45
2023/04/11 03:14:03;;;;;;;12.57;8.98;;;6.90;99.90;;;;;;5022550;28;20469;-45
2023/04/11 03:16:31;;;;;;;5.18;4.57;;;6.80;99.90;;;;;;5008770;28;20084;-46
2023/04/11 03:18:59;;;;;;;8.63;5.90;;;6.70;99.90;;;;;;5023443;28;20389;-45
2023/04/11 03:21:27;;;;;;;7.25;4.45;;;6.80;99.90;;;;;;5025159;28;20053;-45
2023/04/11 03:23:55;;;;;;;6.03;5.15;;;6.80;99.90;;;;;;5024701;28;20860;-45
2023/04/11 03:26:25;;;;;;;7.95;5.15;;;6.90;99.90;;;;;;5024564;28;20037;-46
2023/04/11 03:28:57;;;;;;;4.45;4.05;;;7.00;99.90;;;;;;5020966;28;20049;-46
2023/04/11 03:31:29;;;;;;;5.93;4.95;;;6.90;99.90;;;;;;5020005;28;20045;-46
2023/04/11 03:33:58;;;;;;;8.05;5.55;;;6.70;99.90;;;;;;5009055;28;20502;-46
2023/04/11 03:36:26;;;;;;;7.57;5.25;;;6.50;99.90;;;;;;5011445;28;20503;-45
2023/04/11 03:38:53;;;;;;;8.50;4.65;;;6.40;99.90;;;;;;5027998;28;20049;-46
2023/04/11 03:41:21;;;;;;;7.47;5.63;;;6.30;99.90;;;;;;5007385;28;20049;-45
2023/04/11 03:43:50;;;;;;;12.45;7.50;;;6.30;99.90;;;;;;5017660;28;20357;-46
2023/04/11 03:46:20;;;;;;;6.75;5.88;;;6.30;99.90;;;;;;5028415;28;20407;-45
2023/04/11 03:48:48;;;;;;;6.90;4.72;;;6.40;99.90;;;;;;5023151;28;20049;-46
2023/04/11 03:51:17;;;;;;;5.57;4.95;;;6.40;99.90;;;;;;5021932;28;20060;-34
2023/04/11 03:53:51;;;;;;;4.15;3.50;;;6.60;99.90;;;;;;5022347;28;20058;-46
2023/04/11 03:56:32;;;;;;;;;;;6.80;99.90;;;;;;5018494;28;20100;-45
2023/04/11 03:59:00;;;;;;;2.90;2.70;;;7.50;99.90;;;;;;5018906;28;20695;-46
2023/04/11 04:01:36;;;;;;;3.65;3.28;;;7.50;99.90;;;;;;5019621;28;20045;-46
2023/04/11 04:04:06;;;;;;;3.78;3.10;;;7.50;99.90;;;;;;5019388;28;20056;-46
2023/04/11 04:06:37;;;;;;;4.80;3.08;;;7.50;99.90;;;;;;5022120;28;20045;-45
2023/04/11 04:09:05;;;;;;;5.22;3.67;;;7.30;99.90;;;;;;5021519;28;20072;-46
2023/04/11 04:11:45;;;;;;;4.43;3.70;;;7.20;99.90;;;;;;5019390;28;20042;-46
2023/04/11 04:14:13;;;;;;;4.63;4.22;;;7.00;99.90;;;;;;5024048;28;20053;-45
2023/04/11 04:16:41;;;;;;;4.90;4.32;;;7.00;99.90;;;;;;5006683;28;20060;-46
2023/04/11 04:19:10;;;;;;;6.05;4.45;;;6.80;99.90;;;;;;5022118;28;20046;-46
2023/04/11 04:21:44;;;;;;;5.10;3.83;;;6.70;99.90;;;;;;5025299;28;20053;-46
2023/04/11 04:24:13;;;;;;;4.47;2.97;;;7.90;99.90;;;;;;5015729;28;20057;-45
2023/04/11 04:26:59;;;;;;;6.57;4.20;;;8.40;99.90;;;;;;5023611;28;20421;-46
2023/04/11 04:29:45;;;;;;;4.10;3.70;;;8.30;99.90;;;;;;5006099;28;20061;-46
2023/04/11 04:32:21;;;;;;;3.08;2.88;;;8.10;99.90;;;;;;5008974;28;20041;-46
2023/04/11 04:34:54;;;;;;;4.22;3.80;;;7.90;99.90;;;;;;5017865;28;20053;-46
2023/04/11 04:37:26;;;;;;;5.30;4.40;;;7.70;99.90;;;;;;4989931;28;20061;-46
2023/04/11 04:40:06;;;;;;;5.75;5.25;;;7.30;99.90;;;;;;5011851;28;20054;-46
2023/04/11 04:42:42;;;;;;;5.55;4.80;;;7.00;99.90;;;;;;5008732;28;20441;-46
2023/04/11 04:45:10;;;;;;;3.97;3.67;;;6.90;99.90;;;;;;5005732;28;20077;-46
2023/04/11 04:47:38;;;;;;;7.00;5.65;;;6.80;99.90;;;;;;5003161;28;20049;-46
2023/04/11 04:50:06;;;;;;;6.70;6.05;;;6.70;99.90;;;;;;5019021;28;20061;-46
2023/04/11 04:52:34;;;;;;;6.95;6.25;;;6.70;99.90;;;;;;5017389;28;20057;-46
2023/04/11 04:55:02;;;;;;;7.03;5.13;;;6.70;99.90;;;;;;5023651;28;20045;-46
2023/04/11 04:57:30;;;;;;;5.55;4.82;;;6.80;99.90;;;;;;5022021;28;20056;-46
2023/04/11 04:59:59;;;;;;;7.40;6.20;;;6.80;99.90;;;;;;5017944;28;20064;-47
2023/04/11 05:02:26;;;;;;;6.70;5.78;;;6.80;99.90;;;;;;5018771;28;20294;-46
2023/04/11 05:04:56;;;;;;;7.50;6.00;;;6.90;99.90;;;;;;5018442;28;20046;-46
2023/04/11 05:07:25;;;;;;;8.23;6.15;;;6.90;99.90;;;;;;5022110;28;20064;-46
2023/04/11 05:09:53;;;;;;;4.18;3.38;;;6.90;99.90;;;;;;5003890;28;20470;-46
2023/04/11 05:12:25;;;;;;;3.15;2.38;;;6.90;99.90;;;;;;5022943;28;20282;-46
2023/04/11 05:14:57;;;;;;;3.20;2.95;;;7.80;99.90;;;;;;5005080;28;20403;-47
2023/04/11 05:17:28;;;;;;;2.00;1.80;;;9.00;99.90;;;;;;5027798;28;20425;-47
2023/04/11 05:19:56;;;;;;;1.45;1.35;;;9.60;99.90;;;;;;5012489;28;20228;-45
2023/04/11 05:22:24;;;;;;;1.83;1.58;;;9.80;99.90;;;;;;5024528;28;20042;-46
2023/04/11 05:24:56;;;;;;;2.05;1.90;;;9.80;99.90;;;;;;5026475;28;20045;-46
2023/04/11 05:27:24;;;;;;;2.10;1.50;;;9.70;99.90;;;;;;5026141;28;20099;-46
2023/04/11 05:29:53;;;;;;;2.45;1.92;;;9.70;99.90;;;;;;5008302;28;20064;-46
2023/04/11 05:32:20;;;;;;;2.53;2.15;;;9.90;99.90;;;;;;5027841;28;20057;-46
2023/04/11 05:34:55;;;;;;;2.75;1.35;;;9.80;99.90;;;;;;5022522;28;20057;-47
2023/04/11 05:37:46;;;;;;;1.65;1.55;;;9.70;99.90;;;;;;5022682;28;20124;-46
2023/04/11 05:40:13;;;;;;;2.78;1.60;;;9.80;99.90;;;;;;5026238;28;20052;-46
2023/04/11 05:42:41;;;;;;;2.47;1.45;;;9.90;99.90;;;;;;5008316;28;20057;-46
2023/04/11 05:45:09;;;;;;;2.28;1.40;;;10.00;99.90;;;;;;5019325;28;20067;-45
2023/04/11 05:47:37;;;;;;;4.72;1.52;;;10.10;99.90;;;;;;5025981;28;20589;-46
2023/04/11 05:50:06;;;;;;;2.45;1.70;;;10.00;99.90;;;;;;5012635;28;20065;-46
2023/04/11 05:52:33;;;;;;;1.23;1.23;;;10.00;99.90;;;;;;5022054;28;20064;-46
2023/04/11 05:55:01;;;;;;;2.25;2.05;;;10.00;99.90;;;;;;5019245;28;20282;-46
2023/04/11 05:57:28;;;;;;;1.52;1.20;;;10.10;99.90;;;;;;5026015;28;20421;-45
2023/04/11 05:59:56;;;;;;;1.65;1.48;;;10.10;99.90;;;;;;5025266;28;20592;-46
2023/04/11 06:02:24;;;;;;;1.73;1.63;;;10.10;99.90;;;;;;5007415;28;20050;-46
2023/04/11 06:04:52;;;;;;;2.35;1.33;;;10.20;99.90;;;;;;5021556;28;20064;-46
2023/04/11 06:07:21;;;;;;;1.42;1.33;;;10.20;99.90;;;;;;5025734;28;20064;-45
2023/04/11 06:09:49;;;;;;;1.40;1.30;;;10.20;99.90;;;;;;5011077;28;20065;-46
2023/04/11 06:12:16;;;;;;;3.45;1.50;;;10.10;99.90;;;;;;5024635;28;20053;-46
2023/04/11 06:14:44;;;;;;;1.58;1.48;;;10.10;99.90;;;;;;5025616;28;20061;-45
2023/04/11 06:17:12;;;;;;;1.80;1.67;;;10.10;99.90;;;;;;5025446;28;20057;-46
2023/04/11 06:19:39;;;;;;;1.17;1.10;;;10.00;99.90;;;;;;5023852;28;20076;-46
2023/04/11 06:22:07;;;;;;;1.67;1.58;;;9.90;99.90;;;;;;5025392;28;20053;-46
2023/04/11 06:24:38;;;;;;;4.00;2.17;;;10.00;99.90;;;;;;5025724;28;20356;-46
2023/04/11 06:27:10;;;;;;;2.05;1.65;;;9.90;99.90;;;;;;5024748;28;20056;-46
2023/04/11 06:29:38;;;;;;;1.52;1.40;;;9.90;99.90;;;;;;5024927;28;20057;-46
2023/04/11 06:32:07;;;;;;;3.60;2.00;;;10.00;99.90;;;;;;5025163;28;20049;-46
2023/04/11 06:34:34;;;;;;;1.58;1.48;;;10.00;99.90;;;;;;5024452;28;20052;-46
2023/04/11 06:37:02;;;;;;;1.60;1.50;;;9.90;99.90;;;;;;5025278;28;20076;-34
2023/04/11 06:39:29;;;;;;;1.60;1.50;;;10.10;99.90;;;;;;5024448;28;20057;-34
2023/04/11 06:41:57;;;;;;;2.28;2.05;;;10.10;99.90;;;;;;5024915;28;20049;-34
2023/04/11 06:44:25;;;;;;;1.73;1.63;;;10.10;99.90;;;;;;5024498;28;20059;-46
2023/04/11 06:46:54;;;;;;;1.58;1.48;;;10.10;99.90;;;;;;5025085;28;20064;-46
2023/04/11 06:49:22;;;;;;;1.80;1.70;;;10.10;99.90;;;;;;5021564;28;20339;-46
2023/04/11 06:51:49;;;;;;;1.75;1.65;;;10.10;99.90;;;;;;5022097;28;20060;-47
2023/04/11 06:54:18;;;;;;;2.70;1.27;;;10.10;99.90;;;;;;5021565;28;20053;-46
2023/04/11 06:56:46;;;;;;;1.48;1.35;;;10.10;99.90;;;;;;5021261;28;20060;-46
2023/04/11 06:59:13;;;;;;;1.23;1.13;;;10.00;99.90;;;;;;5020520;28;20328;-46
2023/04/11 07:01:41;;;;;;;4.35;1.88;;;10.10;99.90;;;;;;5021351;28;20075;-46
2023/04/11 07:04:09;;;;;;;1.30;1.25;;;10.00;99.90;;;;;;5020372;28;20057;-46
2023/04/11 07:06:36;;;;;;;4.40;1.65;;;10.00;99.90;;;;;;5020302;28;20061;-34
2023/04/11 07:09:04;;;;;;;2.65;1.13;;;10.00;99.90;;;;;;5020170;28;20049;-34
2023/04/11 07:11:32;;;;;;;1.75;1.65;;;10.00;99.90;;;;;;5019901;28;20052;-34
2023/04/11 07:14:00;;;;;;;1.50;1.40;;;9.90;99.90;;;;;;5021286;28;20049;-34
2023/04/11 07:16:28;;;;;;;1.60;1.50;;;9.90;99.90;;;;;;5022016;28;20624;-35
2023/04/11 07:18:56;;;;;;;1.73;1.50;;;9.90;99.90;;;;;;5019593;28;20286;-33
2023/04/11 07:21:26;;;;;;;1.80;1.52;;;9.80;99.90;;;;;;5021736;28;20057;-34
2023/04/11 07:23:53;;;;;;;1.63;1.30;;;9.70;99.90;;;;;;5019759;28;20052;-34
2023/04/11 07:26:22;;;;;;;1.60;1.50;;;9.50;99.90;;;;;;5021074;28;20056;-34
2023/04/11 07:28:50;;;;;;;1.77;1.67;;;9.40;99.90;;;;;;5020483;28;20472;-35
2023/04/11 07:31:20;;;;;;;1.70;1.60;;;9.30;99.90;;;;;;5020401;28;20443;-34
2023/04/11 07:33:48;;;;;;;1.15;1.15;;;9.20;99.90;;;;;;5020671;28;20050;-34
2023/04/11 07:36:15;;;;;;;2.08;1.85;;;9.10;99.90;;;;;;5019976;28;20049;-34
2023/04/11 07:38:43;;;;;;;2.10;1.20;;;9.00;99.90;;;;;;5018889;28;20049;-34
2023/04/11 07:41:10;;;;;;;2.45;1.38;;;9.00;99.90;;;;;;5020768;28;20513;-34
2023/04/11 07:43:38;;;;;;;2.55;1.48;;;8.90;99.90;;;;;;5021091;28;20422;-34
2023/04/11 07:46:06;;;;;;;2.65;1.65;;;8.90;99.90;;;;;;5020311;28;20069;-34
2023/04/11 07:48:34;;;;;;;1.92;1.30;;;8.80;99.90;;;;;;5021223;28;20120;-34
2023/04/11 07:51:01;;;;;;;3.35;1.90;;;8.80;99.90;;;;;;5011037;28;20045;-34
2023/04/11 07:53:31;;;;;;;1.67;1.58;;;8.80;99.90;;;;;;5021791;28;20061;-37
2023/04/11 07:55:59;;;;;;;1.45;1.17;;;8.80;99.90;;;;;;5021063;28;20072;-36
2023/04/11 07:58:27;;;;;;;1.85;1.45;;;8.80;99.90;;;;;;5020828;28;20446;-35
2023/04/11 08:00:55;;;;;;;4.97;1.70;;;8.80;99.90;;;;;;5021164;28;20502;-36
2023/04/11 08:03:22;;;;;;;1.95;1.40;;;8.70;99.90;;;;;;5020401;28;20501;-36
2023/04/11 08:05:51;;;;;;;1.40;1.30;;;8.70;99.90;;;;;;5019420;28;20517;-36
2023/04/11 08:08:18;;;;;;;1.60;1.52;;;8.70;99.90;;;;;;5020631;28;20434;-35
2023/04/11 08:10:46;;;;;;;1.73;1.08;;;8.70;99.90;;;;;;5020960;28;20045;-36
2023/04/11 08:13:13;;;;;;;1.30;1.20;;;8.60;99.90;;;;;;5021120;28;20064;-36
2023/04/11 08:15:41;;;;;;;1.55;1.45;;;8.60;99.90;;;;;;5020906;28;20398;-36
2023/04/11 08:18:08;;;;;;;0.88;0.88;;;8.60;99.90;;;;;;5020334;28;20409;-36
2023/04/11 08:20:39;;;;;;;1.30;1.20;;;8.60;99.90;;;;;;5018298;28;20064;-36
2023/04/11 08:23:09;;;;;;;2.33;1.60;;;8.50;99.90;;;;;;5023457;28;20053;-36
2023/04/11 08:25:37;;;;;;;1.40;1.17;;;8.50;99.90;;;;;;5020352;28;20057;-36
2023/04/11 08:28:05;;;;;;;1.05;1.02;;;8.30;99.90;;;;;;5020126;28;20064;-37
2023/04/11 08:30:33;;;;;;;1.83;1.42;;;8.30;99.90;;;;;;5018805;28;20514;-36
2023/04/11 08:33:00;;;;;;;1.83;1.25;;;8.30;99.90;;;;;;5021967;28;20305;-39
2023/04/11 08:35:28;;;;;;;1.10;1.00;;;8.20;99.90;;;;;;5019175;28;20068;-39
2023/04/11 08:37:56;;;;;;;0.95;0.95;;;8.20;99.90;;;;;;5019929;28;20053;-35
2023/04/11 08:40:23;;;;;;;1.75;1.52;;;8.10;99.90;;;;;;5019731;28;20057;-37
2023/04/11 08:43:00;;;;;;;0.98;0.98;;;8.10;99.90;;;;;;5019518;28;20421;-36
2023/04/11 08:45:28;;;;;;;0.73;0.73;;;8.00;99.90;;;;;;5020399;28;20061;-37
2023/04/11 08:47:56;;;;;;;1.38;1.27;;;8.10;99.90;;;;;;5017142;28;20069;-39
2023/04/11 08:50:23;;;;;;;1.02;0.93;;;8.10;99.90;;;;;;5017421;28;20049;-42
2023/04/11 08:52:52;;;;;;;0.88;0.88;;;8.00;99.90;;;;;;5013349;28;20057;-36
2023/04/11 08:55:20;;;;;;;0.90;0.90;;;8.00;99.90;;;;;;5018894;28;20053;-37
2023/04/11 08:57:47;;;;;;;1.35;1.25;;;8.10;99.90;;;;;;5019252;28;20054;-38
2023/04/11 09:00:17;;;;;;;5.32;1.95;;;8.10;99.90;;;;;;5017503;28;20056;-37
2023/04/11 09:03:02;;;;;;;1.50;1.25;;;8.10;99.90;;;;;;5019323;28;20049;-37
2023/04/11 09:05:42;;;;;;;3.13;2.83;;;8.00;99.90;;;;;;5012532;28;20068;-36
2023/04/11 09:08:11;;;;;;;2.55;1.70;;;8.10;99.90;;;;;;5019195;28;20425;-39
2023/04/11 09:10:40;;;;;;;2.35;1.58;;;8.00;99.90;;;;;;5019479;28;20334;-38
2023/04/11 09:13:22;;;;;;;2.00;1.45;;;8.10;99.90;;;;;;5019477;28;20053;-38
2023/04/11 09:16:03;;;;;;;0.98;0.98;;;8.20;99.90;;;;;;5014084;28;20060;-37
2023/04/11 09:18:32;;;;;;;1.52;1.45;;;8.30;99.90;;;;;;5018872;28;20053;-37
2023/04/11 09:21:05;;;;;;;4.32;1.83;;;8.40;99.90;;;;;;5017783;28;20064;-37
2023/04/11 09:23:34;;;;;;;1.95;1.73;;;8.40;99.90;;;;;;5013012;28;20045;-37
2023/04/11 09:26:04;;;;;;;5.13;1.90;;;8.40;99.90;;;;;;5018490;28;20057;-37
2023/04/11 09:28:43;;;;;;;3.00;2.42;;;8.20;99.90;;;;;;5019038;28;20069;-38
2023/04/11 09:31:14;;;;;;;2.25;0.77;;;8.00;99.90;;;;;;5017524;28;20429;-36
2023/04/11 09:33:58;;;;;;;1.42;1.33;;;8.00;99.90;;;;;;5018767;28;20395;-36
2023/04/11 09:36:27;;;;;;;1.65;0.98;;;8.00;99.90;;;;;;4986459;28;20082;-37
2023/04/11 09:38:56;;;;;;;1.95;1.13;;;8.00;99.90;;;;;;5018763;28;20043;-36
2023/04/11 09:41:31;;;;;;;1.90;1.25;;;8.00;99.90;;;;;;5019232;28;20061;-37
2023/04/11 09:44:00;;;;;;;1.30;1.00;;;8.10;99.90;;;;;;5017072;28;20034;-37
2023/04/11 09:46:27;;;;;;;3.63;1.23;;;8.20;99.90;;;;;;5018926;28;20053;-37
2023/04/11 09:48:55;;;;;;;1.60;1.50;;;8.10;99.90;;;;;;5018267;28;20403;-36
2023/04/11 09:51:23;;;;;;;1.42;1.23;;;8.10;99.90;;;;;;5017757;28;20049;-36
2023/04/11 09:54:03;;;;;;;1.23;0.80;;;8.20;99.90;;;;;;5015695;28;20057;-36
2023/04/11 09:56:33;;;;;;;1.75;1.13;;;8.20;99.90;;;;;;5018586;28;20064;-36
2023/04/11 09:59:02;;;;;;;0.80;0.80;;;8.20;99.90;;;;;;5018701;28;20041;-36
2023/04/11 10:01:30;;;;;;;2.78;0.95;;;8.20;99.90;;;;;;5019837;28;20279;-36
2023/04/11 10:03:59;;;;;;;2.67;0.98;;;8.30;99.90;;;;;;5020604;28;20045;-36
2023/04/11 10:06:33;;;;;;;1.02;0.93;;;8.50;99.90;;;;;;5022140;28;20037;-37
2023/04/11 10:09:09;;;;;;;1.02;0.93;;;8.40;99.90;;;;;;5019472;28;20053;-37
2023/04/11 10:11:42;;;;;;;0.90;0.90;;;8.20;99.90;;;;;;5021142;28;20053;-36
2023/04/11 10:14:38;;;;;;;0.95;0.95;;;8.20;99.90;;;;;;5021741;28;20529;-36
2023/04/11 10:17:20;;;;;;;1.27;1.17;;;8.20;99.90;;;;;;5022546;28;20056;-36
2023/04/11 10:19:55;;;;;;;2.55;1.00;;;8.00;99.90;;;;;;5020010;28;20053;-39
2023/04/11 10:22:42;;;;;;;1.02;0.85;;;8.00;99.90;;;;;;5022138;28;20053;-36
2023/04/11 10:25:18;;;;;;;1.63;1.38;;;7.90;99.90;;;;;;5022761;28;20061;-37
2023/04/11 10:27:53;;;;;;;3.65;1.40;;;7.80;99.90;;;;;;5021315;28;20038;-37
2023/04/11 10:30:39;;;;;;;0.82;0.82;;;7.80;99.90;;;;;;5017010;28;20050;-36
2023/04/11 10:33:16;;;;;;;1.08;1.08;;;7.90;99.90;;;;;;5021852;28;20044;-36
2023/04/11 10:36:09;;;;;;;6.93;1.48;;;7.90;99.90;;;;;;4997733;28;20043;-37
2023/04/11 10:38:42;;;;;;;2.38;0.93;;;7.80;99.90;;;;;;5018390;28;20132;-37
2023/04/11 10:41:19;;;;;;;1.60;1.10;;;7.80;99.90;;;;;;5020132;28;20050;-37
2023/04/11 10:43:48;;;;;;;0.80;0.80;;;7.80;99.90;;;;;;5021170;28;20038;-36
2023/04/11 10:46:25;;;;;;;4.63;1.00;;;7.80;99.90;;;;;;5021909;28;20045;-36
2023/04/11 10:49:03;;;;;;;1.67;1.48;;;7.70;99.90;;;;;;5020906;28;20388;-37
2023/04/11 10:51:32;;;;;;;4.03;1.60;;;7.80;99.90;;;;;;5020687;28;20982;-37
2023/04/11 10:54:00;;;;;;;1.00;1.00;;;7.80;99.90;;;;;;5021326;28;20366;-37
2023/04/11 10:56:51;;;;;;;1.70;1.00;;;7.80;99.90;;;;;;5021637;28;20418;-37
2023/04/11 10:59:31;;;;;;;1.48;1.38;;;7.80;99.90;;;;;;5009033;28;20053;-36
2023/04/11 11:02:00;;;;;;;2.03;1.38;;;7.80;99.90;;;;;;5014321;28;20449;-37
2023/04/11 11:04:31;;;;;;;6.40;1.15;;;7.80;99.90;;;;;;5020448;28;20053;-37
2023/04/11 11:07:02;;;;;;;4.70;2.72;;;7.80;99.90;;;;;;5020606;28;20083;-36
2023/04/11 11:09:31;;;;;;;1.60;1.48;;;8.00;99.90;;;;;;5019972;28;20053;-36
2023/04/11 11:12:15;;;;;;;3.80;2.65;;;8.20;99.90;;;;;;5021048;28;20053;-37
2023/04/11 11:14:45;;;;;;;2.05;1.00;;;8.30;99.90;;;;;;5020617;28;20179;-36
2023/04/11 11:17:15;;;;;;;1.13;0.85;;;8.40;99.90;;;;;;5020013;28;20088;-37
2023/04/11 11:19:43;;;;;;;1.30;1.20;;;8.70;99.90;;;;;;5019757;28;20623;-36
2023/04/11 11:22:25;;;;;;;4.22;1.55;;;8.80;99.90;;;;;;5020945;28;20057;-37
2023/04/11 11:24:52;;;;;;;5.35;1.23;;;8.90;99.90;;;;;;5020113;28;20391;-36
2023/04/11 11:27:22;;;;;;;3.65;1.23;;;9.00;99.90;;;;;;5003849;28;20045;-36
2023/04/11 11:29:50;;;;;;;3.55;1.27;;;9.00;99.90;;;;;;5020503;28;20514;-36
2023/04/11 11:32:23;;;;;;;1.50;1.40;;;9.10;99.90;;;;;;5021117;28;20064;-36
2023/04/11 11:34:52;;;;;;;1.95;0.98;;;9.20;99.90;;;;;;5019892;28;20068;-36
2023/04/11 11:37:20;;;;;;;4.25;1.17;;;8.90;99.90;;;;;;5020544;28;20049;-36
2023/04/11 11:39:49;;;;;;;0.90;0.90;;;8.80;99.90;;;;;;5019277;28;20569;-36
2023/04/11 11:42:17;;;;;;;4.90;1.27;;;8.60;99.90;;;;;;5019451;28;20353;-36
2023/04/11 11:44:45;;;;;;;1.65;0.88;;;8.70;99.90;;;;;;5017302;28;20054;-36
2023/04/11 11:47:15;;;;;;;2.67;1.75;;;9.10;99.90;;;;;;5020631;28;20060;-36
2023/04/11 11:49:54;;;;;;;1.80;0.95;;;9.00;99.90;;;;;;5018556;28;20864;-36
2023/04/11 11:52:32;;;;;;;1.90;1.10;;;9.30;99.90;;;;;;5018316;28;20049;-36
2023/04/11 11:55:02;;;;;;;1.77;0.90;;;9.20;99.90;;;;;;5015293;28;20069;-36
2023/04/11 11:57:30;;;;;;;4.18;1.13;;;8.80;99.90;;;;;;5020446;28;20061;-37
2023/04/11 12:00:01;;;;;;;0.90;0.90;;;9.00;99.90;;;;;;5022948;28;20497;-37
2023/04/11 12:02:34;;;;;;;3.00;1.10;;;9.40;99.90;;;;;;5021857;28;20549;-36
2023/04/11 12:05:05;;;;;;;1.95;1.15;;;9.80;99.90;;;;;;5023287;28;20537;-37
2023/04/11 12:07:35;;;;;;;1.95;0.90;;;9.60;99.90;;;;;;5023715;28;20068;-36
2023/04/11 12:10:10;;;;;;;2.90;0.95;;;9.30;99.90;;;;;;5023019;28;20061;-37
2023/04/11 12:12:40;;;;;;;0.77;0.77;;;9.40;99.90;;;;;;5024475;28;20219;-36
2023/04/11 12:15:12;;;;;;;9.20;2.40;;;9.10;99.90;;;;;;5023424;28;20057;-36
2023/04/11 12:17:40;;;;;;;2.90;1.35;;;9.40;99.90;;;;;;5021890;28;20504;-39
2023/04/11 12:20:11;;;;;;;1.35;1.25;;;9.40;99.90;;;;;;5021986;28;20050;-38
2023/04/11 12:22:39;;;;;;;3.35;1.08;;;9.40;99.90;;;;;;5023750;28;20425;-37
2023/04/11 12:25:07;;;;;;;3.80;1.23;;;9.40;99.90;;;;;;5023365;28;20060;-37
2023/04/11 12:27:36;;;;;;;2.90;1.95;;;9.70;99.90;;;;;;5022953;28;20045;-37
2023/04/11 12:30:05;;;;;;;6.90;1.95;;;10.00;99.90;;;;;;5020872;28;20058;-36
2023/04/11 12:32:33;;;;;;;3.70;1.65;;;9.70;99.90;;;;;;5023845;28;20065;-36
2023/04/11 12:35:03;;;;;;;0.93;0.73;;;9.70;99.90;;;;;;5022615;28;20061;-36
2023/04/11 12:37:31;;;;;;;1.20;1.10;;;9.70;99.90;;;;;;5024690;28;20057;-36
2023/04/11 12:39:59;;;;;;;1.20;1.00;;;9.50;99.90;;;;;;5023702;28;20057;-36
2023/04/11 12:42:27;;;;;;;1.48;1.27;;;9.60;99.90;;;;;;5022550;28;20394;-36
2023/04/11 12:44:54;;;;;;;2.08;1.10;;;9.30;99.90;;;;;;5023081;28;20422;-36
2023/04/11 12:47:22;;;;;;;1.45;1.35;;;9.50;99.90;;;;;;5022621;28;20250;-36
2023/04/11 12:49:50;;;;;;;1.48;1.38;;;9.80;99.90;;;;;;5022561;28;20058;-36
2023/04/11 12:52:17;;;;;;;1.65;1.25;;;10.10;99.90;;;;;;5022800;28;20053;-37
2023/04/11 12:54:45;;;;;;;1.20;1.02;;;10.00;99.90;;;;;;5023085;28;20064;-36
2023/04/11 12:57:12;;;;;;;3.47;1.20;;;9.70;99.90;;;;;;5022896;28;20550;-36
2023/04/11 12:59:40;;;;;;;2.05;1.30;;;9.30;99.90;;;;;;5022922;28;20052;-37
2023/04/11 13:02:08;;;;;;;2.08;1.98;;;9.00;99.90;;;;;;5022598;28;20064;-36
2023/04/11 13:04:36;;;;;;;1.92;1.30;;;9.30;99.90;;;;;;5019449;28;20149;-35
2023/04/11 13:07:03;;;;;;;3.47;1.52;;;9.60;99.90;;;;;;5022338;28;20057;-36
2023/04/11 13:09:33;;;;;;;9.65;1.60;;;9.50;99.90;;;;;;5019933;28;20061;-36